createdAt,value
2023-01-19T00:00:40.403Z,12.82
2023-01-19T00:03:15.864Z,12.73
2023-01-19T00:05:44.077Z,12.76
2023-01-19T00:08:15.112Z,12.73
2023-01-19T00:10:54.075Z,12.61
2023-01-19T00:13:21.075Z,12.76
2023-01-19T00:15:48.040Z,12.77
2023-01-19T00:18:14.955Z,12.64
2023-01-19T00:20:42.080Z,12.71
2023-01-19T00:23:09.563Z,12.75
2023-01-19T00:25:42.714Z,12.86
2023-01-19T00:28:11.796Z,12.99
2023-01-19T00:30:39.651Z,13.09
2023-01-19T00:33:06.530Z,12.84
2023-01-19T00:35:34.723Z,12.73
2023-01-19T00:38:02.702Z,12.77
2023-01-19T00:40:29.684Z,12.81
2023-01-19T00:42:56.600Z,13.05
2023-01-19T00:45:24.692Z,12.90
2023-01-19T00:47:57.222Z,12.67
2023-01-19T00:50:25.763Z,12.60
2023-01-19T00:52:54.202Z,12.51
2023-01-19T00:55:21.813Z,12.47
2023-01-19T00:57:49.169Z,12.50
2023-01-19T01:00:19.600Z,12.65
2023-01-19T01:02:47.556Z,12.65
2023-01-19T01:05:14.736Z,12.40
2023-01-19T01:07:43.079Z,12.37
2023-01-19T01:10:22.300Z,12.40
2023-01-19T01:13:20.553Z,12.45
2023-01-19T01:15:36.668Z,12.58
2023-01-19T01:18:03.665Z,12.57
2023-01-19T01:20:31.247Z,12.45
2023-01-19T01:22:58.713Z,12.51
2023-01-19T01:25:27.599Z,12.53
2023-01-19T01:27:55.244Z,12.68
2023-01-19T01:30:22.890Z,12.63
2023-01-19T01:32:50.167Z,12.69
2023-01-19T01:35:17.192Z,12.59
2023-01-19T01:37:44.194Z,12.57
2023-01-19T01:40:14.626Z,12.49
2023-01-19T01:42:42.726Z,12.56
2023-01-19T01:45:28.696Z,12.66
2023-01-19T01:48:03.602Z,12.58
2023-01-19T01:50:34.312Z,12.55
2023-01-19T01:53:07.506Z,12.47
2023-01-19T01:55:49.320Z,12.46
2023-01-19T01:58:16.742Z,12.52
2023-01-19T02:01:02.545Z,12.57
2023-01-19T02:03:30.097Z,12.60
2023-01-19T02:06:00.871Z,12.61
2023-01-19T02:08:59.650Z,12.53
2023-01-19T02:11:46.283Z,12.65
2023-01-19T02:14:13.290Z,12.61
2023-01-19T02:16:40.379Z,12.70
2023-01-19T02:19:12.840Z,12.74
2023-01-19T02:21:54.411Z,12.73
2023-01-19T02:24:21.957Z,12.70
2023-01-19T02:26:49.331Z,12.74
2023-01-19T02:29:21.387Z,12.92
2023-01-19T02:31:48.483Z,12.84
2023-01-19T02:34:18.265Z,12.96
2023-01-19T02:36:50.878Z,13.00
2023-01-19T02:39:21.002Z,12.89
2023-01-19T02:41:55.842Z,12.95
2023-01-19T02:44:24.642Z,12.94
2023-01-19T02:46:54.374Z,12.94
2023-01-19T02:49:21.372Z,13.17
2023-01-19T02:51:49.130Z,12.96
2023-01-19T02:54:27.807Z,12.86
2023-01-19T02:57:23.726Z,13.09
2023-01-19T03:00:02.161Z,13.07
2023-01-19T03:03:03.681Z,13.05
2023-01-19T03:05:57.486Z,13.20
2023-01-19T03:08:52.347Z,13.21
2023-01-19T03:11:19.255Z,13.08
2023-01-19T03:13:50.192Z,13.10
2023-01-19T03:16:30.119Z,13.17
2023-01-19T03:19:06.062Z,13.13
2023-01-19T03:21:36.256Z,13.19
2023-01-19T03:24:06.668Z,13.07
2023-01-19T03:26:41.272Z,12.96
2023-01-19T03:29:10.629Z,13.01
2023-01-19T03:31:38.689Z,13.05
2023-01-19T03:34:08.373Z,13.11
2023-01-19T03:36:47.665Z,13.41
2023-01-19T03:39:19.969Z,13.31
2023-01-19T03:41:50.049Z,13.17
2023-01-19T03:44:17.449Z,13.17
2023-01-19T03:46:46.563Z,13.22
2023-01-19T03:49:13.933Z,13.14
2023-01-19T03:51:40.876Z,13.30
2023-01-19T03:54:10.416Z,13.31
2023-01-19T03:56:38.096Z,13.16
2023-01-19T03:59:08.085Z,13.19
2023-01-19T04:01:35.102Z,13.17
2023-01-19T04:04:02.146Z,13.20
2023-01-19T04:06:29.174Z,13.38
2023-01-19T04:08:56.122Z,13.29
2023-01-19T04:11:23.153Z,13.23
2023-01-19T04:13:50.375Z,13.12
2023-01-19T04:16:20.624Z,13.17
2023-01-19T04:18:48.558Z,13.16
2023-01-19T04:21:16.195Z,13.31
2023-01-19T04:23:44.546Z,13.20
2023-01-19T04:26:11.491Z,13.04
2023-01-19T04:28:39.099Z,13.05
2023-01-19T04:31:07.347Z,13.10
2023-01-19T04:33:34.801Z,13.08
2023-01-19T04:36:02.165Z,13.30
2023-01-19T04:38:29.023Z,13.27
2023-01-19T04:40:55.965Z,13.14
2023-01-19T04:43:24.033Z,13.09
2023-01-19T04:45:51.420Z,12.99
2023-01-19T04:48:18.889Z,13.15
2023-01-19T04:50:46.606Z,13.07
2023-01-19T04:53:13.907Z,13.21
2023-01-19T04:55:41.089Z,13.17
2023-01-19T04:58:08.163Z,13.13
2023-01-19T05:00:35.124Z,12.96
2023-01-19T05:03:02.450Z,12.94
2023-01-19T05:05:29.843Z,12.91
2023-01-19T05:07:56.894Z,12.82
2023-01-19T05:10:24.057Z,12.95
2023-01-19T05:12:51.429Z,12.94
2023-01-19T05:15:18.778Z,12.89
2023-01-19T05:17:45.841Z,12.93
2023-01-19T05:20:16.105Z,12.89
2023-01-19T05:22:48.413Z,12.90
2023-01-19T05:25:15.300Z,13.12
2023-01-19T05:27:42.249Z,13.16
2023-01-19T05:30:10.050Z,12.94
2023-01-19T05:32:36.968Z,12.87
2023-01-19T05:35:04.096Z,12.93
2023-01-19T05:37:32.770Z,12.78
2023-01-19T05:39:59.785Z,12.89
2023-01-19T05:42:26.651Z,12.89
2023-01-19T05:44:53.538Z,12.85
2023-01-19T05:47:20.423Z,12.73
2023-01-19T05:49:47.273Z,12.82
2023-01-19T05:52:15.010Z,12.76
2023-01-19T05:54:41.924Z,12.73
2023-01-19T05:57:09.011Z,12.90
2023-01-19T05:59:35.887Z,12.93
2023-01-19T06:02:02.988Z,12.61
2023-01-19T06:04:30.247Z,12.58
2023-01-19T06:06:57.411Z,12.55
2023-01-19T06:09:24.308Z,12.56
2023-01-19T06:11:51.217Z,12.82
2023-01-19T06:14:18.127Z,12.89
2023-01-19T06:16:45.066Z,12.74
2023-01-19T06:19:12.085Z,12.65
2023-01-19T06:21:38.986Z,12.76
2023-01-19T06:24:06.293Z,12.83
2023-01-19T06:26:33.155Z,12.82
2023-01-19T06:29:00.025Z,13.09
2023-01-19T06:31:26.908Z,13.21
2023-01-19T06:33:53.864Z,13.17
2023-01-19T06:36:20.782Z,13.23
2023-01-19T06:38:47.840Z,13.13
2023-01-19T06:41:14.936Z,13.05
2023-01-19T06:43:41.780Z,13.18
2023-01-19T06:46:08.904Z,13.23
2023-01-19T06:48:35.803Z,13.12
2023-01-19T06:51:02.733Z,13.03
2023-01-19T06:53:30.369Z,13.03
2023-01-19T06:56:03.159Z,13.11
2023-01-19T06:58:31.884Z,13.04
2023-01-19T07:01:06.178Z,13.16
2023-01-19T07:03:34.550Z,12.84
2023-01-19T07:06:06.771Z,12.73
2023-01-19T07:08:35.099Z,12.76
2023-01-19T07:11:26.519Z,12.68
2023-01-19T07:13:55.455Z,12.66
2023-01-19T07:16:22.765Z,12.95
2023-01-19T07:18:50.261Z,12.91
2023-01-19T07:21:17.660Z,12.82
2023-01-19T07:23:44.923Z,12.98
2023-01-19T07:26:11.882Z,13.01
2023-01-19T07:28:38.771Z,13.09
2023-01-19T07:31:05.882Z,13.35
2023-01-19T07:33:33.184Z,13.49
2023-01-19T07:36:00.060Z,13.34
2023-01-19T07:38:27.050Z,13.50
2023-01-19T07:41:05.197Z,13.66
2023-01-19T07:43:33.044Z,13.70
2023-01-19T07:46:01.717Z,13.94
2023-01-19T07:48:29.549Z,13.92
2023-01-19T07:51:13.104Z,13.82
2023-01-19T07:53:41.991Z,14.02
2023-01-19T07:56:09.363Z,14.18
2023-01-19T07:58:36.646Z,14.33
2023-01-19T08:01:12.615Z,14.40
2023-01-19T08:03:40.372Z,14.46
2023-01-19T08:06:07.811Z,14.66
2023-01-19T08:08:35.136Z,14.65
2023-01-19T08:11:02.029Z,14.71
2023-01-19T08:13:28.979Z,14.69
2023-01-19T08:15:55.956Z,14.71
2023-01-19T08:18:22.802Z,14.94
2023-01-19T08:20:49.897Z,15.07
2023-01-19T08:23:18.252Z,14.96
2023-01-19T08:25:46.110Z,15.17
2023-01-19T08:28:18.335Z,15.25
2023-01-19T08:30:45.810Z,15.39
2023-01-19T08:33:13.913Z,15.45
2023-01-19T08:35:43.526Z,15.56
2023-01-19T08:38:11.121Z,15.47
2023-01-19T08:40:40.458Z,15.43
2023-01-19T08:43:10.514Z,15.56
2023-01-19T08:45:48.180Z,15.46
2023-01-19T08:48:17.273Z,15.38
2023-01-19T08:50:47.045Z,15.18
2023-01-19T08:53:14.753Z,15.18
2023-01-19T08:55:42.190Z,15.12
2023-01-19T08:58:09.568Z,15.13
2023-01-19T09:00:38.142Z,14.97
2023-01-19T09:03:11.580Z,15.10
2023-01-19T09:05:39.133Z,15.15
2023-01-19T09:08:11.374Z,15.09
2023-01-19T09:10:39.361Z,15.01
2023-01-19T09:13:10.966Z,15.05
2023-01-19T09:15:39.326Z,15.00
2023-01-19T09:18:10.356Z,15.14
2023-01-19T09:20:39.166Z,15.10
2023-01-19T09:23:06.419Z,15.28
2023-01-19T09:25:33.364Z,15.26
2023-01-19T09:28:01.134Z,15.19
2023-01-19T09:30:28.587Z,15.33
2023-01-19T09:32:55.515Z,15.33
2023-01-19T09:35:22.421Z,15.69
2023-01-19T09:37:49.493Z,15.68
2023-01-19T09:40:20.745Z,15.69
2023-01-19T09:43:32.897Z,15.60
2023-01-19T10:17:52.542Z,15.41
2023-01-19T10:20:29.053Z,15.74
2023-01-19T10:22:57.227Z,16.00
2023-01-19T10:25:24.606Z,16.15
2023-01-19T10:27:51.913Z,16.45
2023-01-19T10:30:26.394Z,16.51
2023-01-19T10:32:53.615Z,16.49
2023-01-19T10:35:25.246Z,16.53
2023-01-19T10:37:56.505Z,16.41
2023-01-19T10:40:56.693Z,16.45
2023-01-19T10:43:41.919Z,16.64
2023-01-19T10:46:45.788Z,16.86
2023-01-19T10:49:44.860Z,16.78
2023-01-19T10:52:33.039Z,16.73
2023-01-19T10:55:02.429Z,16.71
2023-01-19T10:57:33.273Z,16.66
2023-01-19T11:00:00.271Z,16.62
2023-01-19T11:02:29.735Z,16.48
2023-01-19T11:05:02.226Z,16.49
2023-01-19T11:07:34.153Z,16.47
2023-01-19T11:10:16.180Z,16.31
2023-01-19T11:13:01.921Z,16.12
2023-01-19T11:15:33.927Z,16.16
2023-01-19T11:18:03.137Z,16.22
2023-01-19T11:20:44.149Z,16.07
2023-01-19T11:23:25.038Z,15.98
2023-01-19T11:25:54.388Z,15.96
2023-01-19T11:28:26.633Z,15.86
2023-01-19T11:31:19.690Z,15.96
2023-01-19T11:33:54.778Z,15.86
2023-01-19T11:36:27.582Z,15.97
2023-01-19T11:38:57.642Z,16.00
2023-01-19T11:41:33.289Z,16.01
2023-01-19T11:44:16.196Z,16.09
2023-01-19T11:46:45.223Z,16.20
2023-01-19T11:49:20.487Z,16.23
2023-01-19T11:52:05.514Z,16.38
2023-01-19T11:54:40.714Z,16.31
2023-01-19T11:57:13.817Z,16.40
2023-01-19T11:59:40.968Z,16.38
2023-01-19T12:02:27.865Z,16.50
2023-01-19T12:05:06.466Z,16.51
2023-01-19T12:07:36.810Z,16.41
2023-01-19T12:10:31.963Z,16.49
2023-01-19T12:13:00.517Z,16.60
2023-01-19T12:15:37.082Z,16.54
2023-01-19T12:18:06.823Z,16.58
2023-01-19T12:20:47.653Z,16.63
2023-01-19T12:23:20.602Z,16.71
2023-01-19T12:26:08.944Z,16.89
2023-01-19T12:28:40.257Z,17.15
2023-01-19T12:31:08.492Z,17.18
2023-01-19T12:33:40.155Z,17.24
2023-01-19T12:36:09.940Z,17.37
2023-01-19T12:38:54.103Z,17.28
2023-01-19T12:41:22.978Z,17.15
2023-01-19T12:44:09.801Z,17.14
2023-01-19T12:46:47.878Z,17.27
2023-01-19T12:49:28.331Z,17.36
2023-01-19T12:52:36.558Z,17.34
2023-01-19T12:55:15.457Z,17.32
2023-01-19T12:58:24.268Z,17.23
2023-01-19T13:01:19.353Z,17.13
2023-01-19T13:03:58.353Z,16.99
2023-01-19T13:06:48.573Z,17.08
2023-01-19T13:09:37.177Z,16.98
2023-01-19T13:12:24.105Z,16.90
2023-01-19T13:14:51.047Z,16.91
2023-01-19T13:17:23.700Z,16.85
2023-01-19T13:19:56.724Z,16.82
2023-01-19T13:22:51.036Z,16.88
2023-01-19T13:25:31.617Z,16.84
2023-01-19T13:27:59.090Z,16.95
2023-01-19T13:30:28.485Z,16.87
2023-01-19T13:33:07.008Z,16.93
2023-01-19T13:35:34.278Z,16.87
2023-01-19T13:38:02.069Z,16.83
2023-01-19T13:40:38.728Z,16.74
2023-01-19T13:43:15.381Z,16.72
2023-01-19T13:45:53.130Z,16.62
2023-01-19T13:48:22.716Z,16.66
2023-01-19T13:51:07.199Z,16.64
2023-01-19T13:53:34.606Z,16.40
2023-01-19T13:56:07.881Z,16.32
2023-01-19T13:58:35.154Z,16.29
2023-01-19T14:01:02.302Z,16.31
2023-01-19T14:03:29.361Z,16.24
2023-01-19T14:05:56.392Z,16.26
2023-01-19T14:08:25.809Z,16.26
2023-01-19T14:10:56.502Z,16.26
2023-01-19T14:13:32.721Z,16.00
2023-01-19T14:16:04.688Z,16.02
2023-01-19T14:18:36.261Z,16.02
2023-01-19T14:21:07.947Z,15.92
2023-01-19T14:23:45.588Z,15.89
2023-01-19T14:26:37.544Z,15.88
2023-01-19T14:29:10.364Z,15.76
2023-01-19T14:31:53.160Z,15.69
2023-01-19T14:34:40.075Z,15.68
2023-01-19T14:37:22.287Z,15.58
2023-01-19T14:39:56.563Z,15.60
2023-01-19T14:42:32.652Z,15.85
2023-01-19T14:45:02.876Z,15.72
2023-01-19T14:47:37.291Z,15.64
2023-01-19T14:50:10.927Z,15.59
2023-01-19T14:52:41.918Z,15.48
2023-01-19T14:55:21.251Z,15.53
2023-01-19T14:57:48.634Z,15.37
2023-01-19T15:00:19.179Z,15.34
2023-01-19T15:02:47.184Z,15.46
2023-01-19T15:05:14.838Z,15.31
2023-01-19T15:07:45.958Z,15.23
2023-01-19T15:10:18.493Z,15.06
2023-01-19T15:12:45.531Z,15.07
2023-01-19T15:15:25.866Z,15.15
2023-01-19T15:17:56.056Z,15.09
2023-01-19T15:20:23.996Z,15.01
2023-01-19T15:22:51.004Z,15.15
2023-01-19T15:25:26.206Z,15.14
2023-01-19T15:27:53.381Z,15.08
2023-01-19T15:30:24.019Z,14.98
2023-01-19T15:32:51.664Z,14.88
2023-01-19T15:35:21.313Z,14.85
2023-01-19T15:37:49.116Z,14.71
2023-01-19T15:40:17.625Z,14.88
2023-01-19T15:42:44.834Z,15.04
2023-01-19T15:45:42.121Z,14.86
2023-01-19T15:48:13.133Z,14.82
2023-01-19T15:50:45.262Z,14.41
2023-01-19T15:53:15.249Z,14.41
2023-01-19T15:55:42.631Z,14.36
2023-01-19T15:58:12.068Z,14.42
2023-01-19T16:00:40.078Z,14.37
2023-01-19T16:03:07.160Z,14.41
2023-01-19T16:05:42.668Z,14.48
2023-01-19T16:08:14.556Z,14.32
2023-01-19T16:10:42.228Z,14.22
2023-01-19T16:13:11.769Z,14.16
2023-01-19T16:15:42.335Z,14.17
2023-01-19T16:18:09.304Z,14.13
2023-01-19T16:20:36.146Z,14.12
2023-01-19T16:23:21.118Z,14.21
2023-01-19T16:26:07.880Z,14.22
2023-01-19T16:28:37.390Z,14.25
2023-01-19T16:31:04.767Z,14.27
2023-01-19T16:33:31.687Z,14.20
2023-01-19T16:35:58.619Z,14.11
2023-01-19T16:38:25.537Z,14.22
2023-01-19T16:40:52.375Z,14.18
2023-01-19T16:43:19.364Z,14.14
2023-01-19T16:46:00.857Z,14.09
2023-01-19T16:48:28.176Z,14.04
2023-01-19T16:51:02.401Z,13.96
2023-01-19T16:53:30.486Z,13.98
2023-01-19T16:55:57.482Z,13.93
2023-01-19T16:58:24.606Z,13.94
2023-01-19T17:00:51.602Z,13.93
2023-01-19T17:03:18.523Z,13.96
2023-01-19T17:05:49.916Z,13.97
2023-01-19T17:08:20.687Z,13.91
2023-01-19T17:10:48.258Z,13.95
2023-01-19T17:13:15.483Z,14.00
2023-01-19T17:15:43.349Z,13.96
2023-01-19T17:18:10.378Z,13.96
2023-01-19T17:20:37.635Z,13.95
2023-01-19T17:23:04.619Z,14.01
2023-01-19T17:25:31.603Z,14.10
2023-01-19T17:28:01.689Z,14.05
2023-01-19T17:30:28.728Z,14.00
2023-01-19T17:32:55.734Z,14.04
2023-01-19T17:35:22.599Z,13.91
2023-01-19T17:37:53.636Z,13.95
2023-01-19T17:40:20.733Z,13.93
2023-01-19T17:42:48.124Z,13.89
2023-01-19T17:45:15.085Z,13.96
2023-01-19T17:47:41.996Z,13.99
2023-01-19T17:50:09.734Z,13.96
2023-01-19T17:52:36.924Z,13.78
2023-01-19T17:55:04.040Z,13.80
2023-01-19T17:57:30.994Z,13.74
2023-01-19T17:59:57.863Z,13.70
2023-01-19T18:02:26.136Z,13.71
2023-01-19T18:04:53.258Z,13.67
2023-01-19T18:07:20.322Z,13.70
2023-01-19T18:09:47.303Z,13.62
2023-01-19T18:12:14.288Z,13.63
2023-01-19T18:14:41.567Z,13.59
2023-01-19T18:17:08.629Z,13.57
2023-01-19T18:19:35.627Z,13.65
2023-01-19T18:22:02.743Z,13.66
2023-01-19T18:24:29.867Z,13.77
2023-01-19T18:26:56.750Z,13.63
2023-01-19T18:29:23.832Z,13.65
2023-01-19T18:31:50.832Z,13.69
2023-01-19T18:34:17.823Z,13.70
2023-01-19T18:36:44.865Z,13.74
2023-01-19T18:39:12.143Z,13.79
2023-01-19T18:41:42.294Z,13.97
2023-01-19T18:44:10.249Z,13.96
2023-01-19T18:46:38.610Z,13.82
2023-01-19T18:49:06.044Z,13.88
2023-01-19T18:51:32.989Z,13.89
2023-01-19T18:54:00.481Z,13.91
2023-01-19T18:56:27.620Z,13.84
2023-01-19T18:58:54.905Z,13.93
2023-01-19T19:01:26.042Z,13.82
2023-01-19T19:03:55.049Z,13.75
2023-01-19T19:06:23.551Z,13.70
2023-01-19T19:08:56.174Z,13.68
2023-01-19T19:11:25.429Z,13.62
2023-01-19T19:13:54.137Z,13.64
2023-01-19T19:16:21.057Z,13.64
2023-01-19T19:18:51.042Z,13.56
2023-01-19T19:21:19.384Z,13.57
2023-01-19T19:23:53.966Z,13.51
2023-01-19T19:26:21.384Z,13.49
2023-01-19T19:28:48.457Z,13.41
2023-01-19T19:31:20.703Z,13.34
2023-01-19T19:33:49.080Z,13.49
2023-01-19T19:36:16.085Z,13.29
2023-01-19T19:38:44.554Z,13.25
2023-01-19T19:41:18.101Z,13.33
2023-01-19T19:43:45.090Z,13.21
2023-01-19T19:46:14.322Z,13.11
2023-01-19T19:48:41.764Z,13.20
2023-01-19T19:51:18.393Z,13.19
2023-01-19T19:53:47.872Z,13.06
2023-01-19T19:56:16.143Z,13.01
2023-01-19T19:58:43.546Z,13.07
2023-01-19T20:01:16.216Z,13.02
2023-01-19T20:03:44.197Z,13.00
2023-01-19T20:06:18.162Z,13.04
2023-01-19T20:08:45.159Z,12.95
2023-01-19T20:11:15.040Z,12.87
2023-01-19T20:13:44.408Z,12.80
2023-01-19T20:16:15.140Z,12.82
2023-01-19T20:18:48.529Z,12.78
2023-01-19T20:21:19.654Z,12.82
2023-01-19T20:23:47.474Z,12.79
2023-01-19T20:26:16.682Z,12.71
2023-01-19T20:28:43.695Z,12.79
2023-01-19T20:31:26.603Z,12.80
2023-01-19T20:33:55.758Z,12.77
2023-01-19T20:36:24.426Z,12.82
2023-01-19T20:38:54.987Z,12.90
2023-01-19T20:41:23.193Z,12.84
2023-01-19T20:43:50.886Z,12.84
2023-01-19T20:46:18.498Z,12.86
2023-01-19T20:48:50.860Z,12.80
2023-01-19T20:51:19.044Z,12.81
2023-01-19T20:53:46.314Z,12.89
2023-01-19T20:56:14.962Z,12.92
2023-01-19T20:58:42.223Z,12.89
2023-01-19T21:01:14.482Z,12.86
2023-01-19T21:03:42.431Z,12.85
2023-01-19T21:06:09.847Z,12.84
2023-01-19T21:08:37.920Z,12.96
2023-01-19T21:11:05.843Z,12.93
2023-01-19T21:13:33.114Z,12.87
2023-01-19T21:16:00.461Z,12.89
2023-01-19T21:18:28.105Z,12.80
2023-01-19T21:20:57.559Z,12.80
2023-01-19T21:23:25.869Z,12.87
2023-01-19T21:25:54.616Z,12.93
2023-01-19T21:28:23.056Z,12.76
2023-01-19T21:30:50.902Z,12.69
2023-01-19T21:33:18.553Z,12.66
2023-01-19T21:35:56.892Z,12.53
2023-01-19T21:38:28.492Z,12.51
2023-01-19T21:40:56.717Z,12.42
2023-01-19T21:43:24.953Z,12.54
2023-01-19T21:45:52.240Z,12.55
2023-01-19T21:48:19.872Z,12.37
2023-01-19T21:50:55.738Z,12.35
2023-01-19T21:53:22.621Z,12.41
2023-01-19T21:55:49.653Z,12.41
2023-01-19T21:58:16.610Z,12.39
2023-01-19T22:00:43.643Z,12.43
2023-01-19T22:03:10.987Z,12.57
2023-01-19T22:05:37.997Z,12.51
2023-01-19T22:08:06.558Z,12.44
2023-01-19T22:10:37.610Z,12.40
2023-01-19T22:13:06.722Z,12.45
2023-01-19T22:15:33.889Z,12.45
2023-01-19T22:18:00.812Z,12.45
2023-01-19T22:20:28.085Z,12.60
2023-01-19T22:22:56.153Z,12.52
2023-01-19T22:25:28.055Z,12.47
2023-01-19T22:27:56.420Z,12.51
2023-01-19T22:30:23.435Z,12.66
2023-01-19T22:32:50.613Z,12.57
2023-01-19T22:35:17.584Z,12.80
2023-01-19T22:37:44.455Z,12.74
2023-01-19T22:40:11.902Z,12.73
2023-01-19T22:42:38.852Z,12.72
2023-01-19T22:45:06.238Z,12.61
2023-01-19T22:47:33.206Z,12.69
2023-01-19T22:50:00.116Z,12.68
2023-01-19T22:52:27.117Z,12.75
2023-01-19T22:54:56.423Z,12.77
2023-01-19T22:57:23.361Z,12.61
2023-01-19T22:59:50.261Z,12.51
2023-01-19T23:02:18.620Z,12.47
2023-01-19T23:04:47.423Z,12.46
2023-01-19T23:07:14.543Z,12.45
2023-01-19T23:09:41.568Z,12.50
2023-01-19T23:12:08.484Z,12.59
2023-01-19T23:14:36.365Z,12.50
2023-01-19T23:17:03.397Z,12.42
2023-01-19T23:19:30.319Z,12.39
2023-01-19T23:21:57.231Z,12.40
2023-01-19T23:24:24.130Z,12.39
2023-01-19T23:26:51.442Z,12.39
2023-01-19T23:29:19.704Z,12.44
2023-01-19T23:31:49.623Z,12.36
2023-01-19T23:34:17.582Z,12.36
2023-01-19T23:36:44.810Z,12.35
2023-01-19T23:39:18.669Z,12.42
2023-01-19T23:41:46.420Z,12.39
2023-01-19T23:44:13.504Z,12.44
2023-01-19T23:46:40.475Z,12.43
2023-01-19T23:49:07.376Z,12.41
2023-01-19T23:51:34.675Z,12.34
2023-01-19T23:54:01.819Z,12.37
2023-01-19T23:56:31.850Z,12.38
2023-01-19T23:59:01.839Z,12.34
